Time;durP1;ratioP1;P1;durP2;ratioP2;P2;SDS_P1;SDS_P2;PMS_P1;PMS_P2;Temp;Humidity;BMP_temperature;BMP_pressure;BME280_temperature;BME280_humidity;BME280_pressure;Samples;Min_cycle;Max_cycle;Signal;HPM_P1;HPM_P2
2023/12/17 00:01:13;;;;;;;32.83;15.25;;;1.00;99.90;;;;;;4933755;29;20044;-82
2023/12/17 00:03:39;;;;;;;40.38;16.58;;;1.00;99.90;;;;;;4921701;29;20035;-82
2023/12/17 00:06:30;;;;;;;40.90;18.00;;;1.20;99.90;;;;;;4932896;29;20024;-82
2023/12/17 00:09:00;;;;;;;42.53;17.27;;;1.00;99.90;;;;;;4914916;29;20244;-82
2023/12/17 00:12:10;;;;;;;39.30;17.90;;;1.10;99.90;;;;;;4943108;29;20052;-81
2023/12/17 00:18:51;;;;;;;40.58;17.05;;;1.10;99.90;;;;;;4835557;29;20035;-82
2023/12/17 00:28:02;;;;;;;45.45;16.35;;;1.10;99.90;;;;;;4768314;30;20195;-81
2023/12/17 00:33:41;;;;;;;35.53;15.98;;;1.10;99.90;;;;;;4854410;29;20149;-81
2023/12/17 00:36:07;;;;;;;44.47;17.38;;;1.20;99.90;;;;;;4930742;29;20032;-82
2023/12/17 00:38:33;;;;;;;35.92;14.63;;;1.10;99.90;;;;;;4927193;29;20028;-82
2023/12/17 00:40:58;;;;;;;44.42;18.33;;;1.10;99.90;;;;;;4923715;29;20043;-81
2023/12/17 00:43:24;;;;;;;34.38;15.57;;;0.90;99.90;;;;;;4937017;29;20252;-81
2023/12/17 00:45:57;;;;;;;44.63;16.38;;;1.00;99.90;;;;;;4921425;29;20035;-81
2023/12/17 00:48:23;;;;;;;36.20;15.00;;;1.00;99.90;;;;;;4924195;29;20035;-81
2023/12/17 00:50:48;;;;;;;40.88;15.95;;;1.00;99.90;;;;;;4925066;29;20032;-81
2023/12/17 00:53:14;;;;;;;48.17;17.85;;;1.00;99.90;;;;;;4918059;29;20113;-81
2023/12/17 00:55:40;;;;;;;41.70;16.42;;;1.00;99.90;;;;;;4925050;29;20027;-81
2023/12/17 00:58:05;;;;;;;56.05;17.52;;;0.90;99.90;;;;;;4942018;29;20074;-81
2023/12/17 01:00:31;;;;;;;40.47;17.25;;;0.80;99.90;;;;;;4935441;29;20504;-81
2023/12/17 01:02:57;;;;;;;45.03;17.38;;;0.80;99.90;;;;;;4932252;29;20130;-80
2023/12/17 01:05:22;;;;;;;44.78;17.15;;;0.80;99.90;;;;;;4923911;29;20028;-81
2023/12/17 01:07:48;;;;;;;48.08;19.60;;;0.80;99.90;;;;;;4945155;29;20034;-81
2023/12/17 01:10:14;;;;;;;51.45;21.73;;;0.80;99.90;;;;;;4914460;29;20042;-80
2023/12/17 01:12:40;;;;;;;58.53;21.75;;;0.70;99.90;;;;;;4922858;29;20020;-80
2023/12/17 01:15:07;;;;;;;56.70;20.00;;;0.70;99.90;;;;;;4923736;29;20181;-80
2023/12/17 01:17:32;;;;;;;52.60;20.55;;;0.80;99.90;;;;;;4944101;29;20031;-80
2023/12/17 01:19:58;;;;;;;47.78;18.30;;;0.90;99.90;;;;;;4944316;29;20090;-80
2023/12/17 01:22:25;;;;;;;48.25;20.15;;;0.80;99.90;;;;;;4940924;29;20147;-80
2023/12/17 01:24:54;;;;;;;48.03;17.35;;;0.80;99.90;;;;;;4943352;29;20027;-80
2023/12/17 01:27:20;;;;;;;;;;;0.80;99.90;;;;;;4943924;29;20027;-80
2023/12/17 01:29:48;;;;;;;51.85;19.25;;;0.70;99.90;;;;;;4938233;29;20171;-80
2023/12/17 01:32:35;;;;;;;54.15;18.77;;;0.80;99.90;;;;;;4925006;29;20031;-80
2023/12/17 01:35:08;;;;;;;40.30;17.92;;;0.70;99.90;;;;;;4934216;29;20031;-81
2023/12/17 01:37:55;;;;;;;45.30;17.38;;;0.50;99.90;;;;;;4944179;29;20016;-80
2023/12/17 01:41:09;;;;;;;39.90;16.02;;;0.40;99.90;;;;;;4942400;29;20107;-80
2023/12/17 01:44:07;;;;;;;41.13;17.55;;;0.20;99.90;;;;;;4943013;29;20035;-82
2023/12/17 01:49:46;;;;;;;37.92;15.70;;;-0.20;99.90;;;;;;4934935;29;20046;-80
2023/12/17 01:52:12;;;;;;;46.17;18.60;;;-0.20;99.90;;;;;;4927965;29;20043;-80
2023/12/17 01:54:39;;;;;;;44.35;16.83;;;-0.20;99.90;;;;;;4918180;29;20046;-79
2023/12/17 01:57:05;;;;;;;48.40;19.13;;;-0.10;99.90;;;;;;4935008;29;20055;-79
2023/12/17 01:59:32;;;;;;;47.90;17.10;;;-0.20;99.90;;;;;;4929671;29;20065;-79
2023/12/17 02:01:59;;;;;;;43.85;17.40;;;-0.30;99.90;;;;;;4915352;29;20032;-80
2023/12/17 02:04:24;;;;;;;38.60;15.55;;;-0.20;99.90;;;;;;4922932;29;20032;-80
2023/12/17 02:06:52;;;;;;;44.50;16.85;;;-0.30;99.90;;;;;;4919594;29;20096;-81
2023/12/17 02:09:17;;;;;;;50.00;18.17;;;-0.10;99.90;;;;;;4919566;29;20492;-81
2023/12/17 02:11:43;;;;;;;52.55;21.27;;;-0.30;99.90;;;;;;4920141;29;20035;-80
2023/12/17 02:14:09;;;;;;;41.88;17.13;;;-0.30;99.90;;;;;;4916138;29;20492;-80
2023/12/17 02:16:34;;;;;;;46.45;18.95;;;-0.40;99.90;;;;;;4929029;29;20019;-80
2023/12/17 02:19:01;;;;;;;47.92;18.75;;;-0.10;99.90;;;;;;4940705;29;20103;-80
2023/12/17 02:21:27;;;;;;;45.95;18.92;;;-0.40;99.90;;;;;;4921759;29;20044;-80
2023/12/17 02:23:54;;;;;;;44.65;17.35;;;-0.50;99.90;;;;;;4921136;29;20031;-80
2023/12/17 02:26:19;;;;;;;47.58;17.70;;;-0.50;99.90;;;;;;4924510;29;20503;-80
2023/12/17 02:28:47;;;;;;;44.50;16.40;;;-0.50;99.90;;;;;;4922929;29;20028;-80
2023/12/17 02:31:13;;;;;;;43.55;15.88;;;-0.40;99.90;;;;;;4934458;29;20540;-80
2023/12/17 02:33:39;;;;;;;39.42;17.17;;;-0.40;99.90;;;;;;4939834;29;20055;-81
2023/12/17 02:36:05;;;;;;;40.95;17.92;;;-0.60;99.90;;;;;;4940807;29;20055;-80
2023/12/17 02:38:31;;;;;;;43.22;16.15;;;-0.60;99.90;;;;;;4938446;29;20317;-79
2023/12/17 02:40:56;;;;;;;32.90;15.15;;;-0.70;99.90;;;;;;4921294;29;20039;-80
2023/12/17 02:43:22;;;;;;;42.50;17.77;;;-0.70;99.90;;;;;;4935885;29;20276;-80
2023/12/17 02:45:48;;;;;;;46.35;19.17;;;-0.50;99.90;;;;;;4940649;29;20043;-80
2023/12/17 02:48:14;;;;;;;41.60;18.48;;;-0.40;99.90;;;;;;4943545;29;20127;-80
2023/12/17 02:50:39;;;;;;;48.78;18.25;;;-0.30;99.90;;;;;;4936537;29;20487;-80
2023/12/17 02:53:05;;;;;;;43.45;17.98;;;-0.20;99.90;;;;;;4928455;29;20028;-80
2023/12/17 02:55:31;;;;;;;40.13;15.80;;;-0.10;99.90;;;;;;4919959;29;20028;-79
2023/12/17 02:57:56;;;;;;;48.88;18.67;;;-0.10;99.90;;;;;;4924470;29;20036;-80
2023/12/17 03:00:25;;;;;;;44.50;17.42;;;0.00;99.90;;;;;;4924406;29;20031;-81
2023/12/17 03:02:54;;;;;;;43.33;17.95;;;-0.60;99.90;;;;;;4919128;29;20425;-80
2023/12/17 03:05:41;;;;;;;44.43;19.00;;;-0.10;99.90;;;;;;4931920;29;20027;-80
2023/12/17 03:08:17;;;;;;;50.20;17.65;;;0.00;99.90;;;;;;4928563;29;20036;-80
2023/12/17 03:10:52;;;;;;;44.50;17.45;;;0.10;99.90;;;;;;4930259;29;20082;-80
2023/12/17 03:13:21;;;;;;;47.47;16.90;;;0.20;99.90;;;;;;4932493;29;20035;-80
2023/12/17 03:15:50;;;;;;;44.05;17.50;;;0.20;99.90;;;;;;4932685;29;20040;-80
2023/12/17 03:18:18;;;;;;;41.83;17.05;;;0.30;99.90;;;;;;4920189;29;20036;-80
2023/12/17 03:20:44;;;;;;;46.28;19.42;;;0.30;99.90;;;;;;4923275;29;20052;-81
2023/12/17 03:23:37;;;;;;;43.97;18.55;;;0.30;99.90;;;;;;4919771;29;20032;-80
2023/12/17 03:26:18;;;;;;;44.15;16.90;;;0.40;99.90;;;;;;4923324;29;20020;-80
2023/12/17 03:28:53;;;;;;;48.03;18.20;;;0.50;99.90;;;;;;4921099;29;20148;-80
2023/12/17 03:31:18;;;;;;;45.95;17.60;;;0.50;99.90;;;;;;4928077;29;20032;-80
2023/12/17 03:33:45;;;;;;;47.97;18.70;;;0.50;99.90;;;;;;4922791;29;20028;-80
2023/12/17 03:36:17;;;;;;;46.40;19.70;;;0.60;99.90;;;;;;4922663;29;20032;-80
2023/12/17 03:39:13;;;;;;;46.70;17.33;;;0.50;99.90;;;;;;4922698;29;20193;-80
2023/12/17 03:41:39;;;;;;;41.58;16.52;;;0.60;99.90;;;;;;4917991;29;20111;-80
2023/12/17 03:44:04;;;;;;;46.05;17.83;;;0.50;99.90;;;;;;4919203;29;20027;-80
2023/12/17 03:46:30;;;;;;;48.88;19.65;;;0.60;99.90;;;;;;4921095;29;20032;-79
2023/12/17 03:48:56;;;;;;;43.67;16.35;;;0.60;99.90;;;;;;4920688;29;20136;-79
2023/12/17 03:51:21;;;;;;;47.75;17.63;;;0.60;99.90;;;;;;4921674;29;20332;-79
2023/12/17 03:53:47;;;;;;;49.10;19.27;;;0.50;99.90;;;;;;4941007;29;20024;-79
2023/12/17 03:56:14;;;;;;;48.13;16.00;;;0.50;99.90;;;;;;4942323;29;20027;-80
2023/12/17 03:58:41;;;;;;;44.65;17.23;;;0.60;99.90;;;;;;4921402;29;20059;-79
2023/12/17 04:01:07;;;;;;;45.97;18.92;;;0.60;99.90;;;;;;4904939;29;20392;-80
2023/12/17 04:03:34;;;;;;;43.65;18.23;;;0.50;99.90;;;;;;4908624;29;20031;-80
2023/12/17 04:06:02;;;;;;;50.60;18.25;;;0.50;99.90;;;;;;4911148;29;20055;-80
2023/12/17 04:08:28;;;;;;;42.42;17.23;;;0.50;99.90;;;;;;4925091;29;20039;-80
2023/12/17 04:10:54;;;;;;;41.05;16.00;;;0.40;99.90;;;;;;4905284;29;20020;-80
2023/12/17 04:13:20;;;;;;;55.58;17.25;;;0.60;99.90;;;;;;4907241;29;20028;-80
2023/12/17 04:15:45;;;;;;;54.67;17.98;;;0.40;99.90;;;;;;4906193;29;20061;-80
2023/12/17 04:18:11;;;;;;;46.97;15.15;;;0.30;99.90;;;;;;4907017;29;20500;-81
2023/12/17 04:20:37;;;;;;;44.05;16.30;;;0.40;99.90;;;;;;4911548;29;20034;-80
2023/12/17 04:23:07;;;;;;;57.25;16.52;;;0.40;99.90;;;;;;4910657;29;20119;-80
2023/12/17 04:25:32;;;;;;;;;;;0.30;99.90;;;;;;4907183;29;20048;-80
2023/12/17 04:27:58;;;;;;;62.92;20.90;;;0.40;99.90;;;;;;4926191;29;20427;-81
2023/12/17 04:30:24;;;;;;;59.95;19.00;;;0.30;99.90;;;;;;4911403;29;20485;-79
2023/12/17 04:32:50;;;;;;;50.70;17.27;;;0.40;99.90;;;;;;4906854;29;20304;-79
2023/12/17 04:35:16;;;;;;;56.80;18.60;;;0.40;99.90;;;;;;4906703;29;20028;-80
2023/12/17 04:37:42;;;;;;;70.65;20.77;;;0.30;99.90;;;;;;4900958;29;20481;-81
2023/12/17 04:40:09;;;;;;;45.13;16.23;;;0.40;99.90;;;;;;4902953;29;20079;-79
2023/12/17 04:42:45;;;;;;;88.47;25.63;;;0.30;99.90;;;;;;4923362;29;20051;-82
2023/12/17 04:45:19;;;;;;;58.92;17.52;;;0.30;99.90;;;;;;4924419;29;20031;-80
2023/12/17 04:48:17;;;;;;;47.17;19.38;;;0.40;99.90;;;;;;4909446;29;20083;-80
2023/12/17 04:50:43;;;;;;;46.28;17.48;;;0.30;99.90;;;;;;4869894;29;20387;-81
2023/12/17 04:53:08;;;;;;;51.22;17.40;;;0.30;99.90;;;;;;4895323;29;20076;-80
2023/12/17 04:55:34;;;;;;;82.55;19.48;;;0.40;99.90;;;;;;4907404;29;20051;-80
2023/12/17 04:58:00;;;;;;;43.70;17.00;;;0.40;99.90;;;;;;4905174;29;20071;-80
2023/12/17 05:00:37;;;;;;;51.83;17.02;;;0.40;99.90;;;;;;4930897;29;20377;-84
2023/12/17 05:03:16;;;;;;;52.10;18.80;;;0.30;99.90;;;;;;4938669;29;20324;-84
2023/12/17 05:05:48;;;;;;;43.00;16.63;;;0.40;99.90;;;;;;4925056;29;20290;-84
2023/12/17 05:08:14;;;;;;;44.03;15.10;;;0.40;99.90;;;;;;4940768;29;20119;-83
2023/12/17 05:10:43;;;;;;;54.33;19.27;;;0.40;99.90;;;;;;4934979;29;20040;-83
2023/12/17 05:13:13;;;;;;;66.53;18.88;;;0.70;99.90;;;;;;4942527;29;20038;-83
2023/12/17 05:15:42;;;;;;;77.13;18.52;;;0.40;99.90;;;;;;4954678;29;20020;-84
2023/12/17 05:18:10;;;;;;;47.27;17.20;;;0.80;99.90;;;;;;4923731;29;20024;-83
2023/12/17 05:20:37;;;;;;;51.35;18.23;;;0.80;99.90;;;;;;4941477;29;20423;-84
2023/12/17 05:23:10;;;;;;;50.75;18.63;;;0.40;99.90;;;;;;4923648;29;20046;-83
2023/12/17 05:25:40;;;;;;;52.15;21.05;;;0.40;99.90;;;;;;4936844;29;20032;-83
2023/12/17 05:28:11;;;;;;;54.88;18.20;;;-1.20;99.90;;;;;;4938935;29;20063;-82
2023/12/17 05:30:37;;;;;;;52.97;18.00;;;0.50;99.90;;;;;;4954980;29;20017;-83
2023/12/17 05:33:08;;;;;;;42.50;17.15;;;0.30;99.90;;;;;;4942239;29;20035;-83
2023/12/17 05:35:42;;;;;;;47.08;19.13;;;0.30;99.90;;;;;;4958852;29;20313;-83
2023/12/17 05:38:11;;;;;;;55.95;17.10;;;0.30;99.90;;;;;;4958336;29;20354;-84
2023/12/17 05:40:38;;;;;;;49.58;17.33;;;0.20;99.90;;;;;;4939563;29;20341;-83
2023/12/17 05:43:05;;;;;;;81.65;22.30;;;0.20;99.90;;;;;;4954407;29;20099;-83
2023/12/17 05:45:32;;;;;;;52.50;19.33;;;0.40;99.90;;;;;;4957065;29;20023;-83
2023/12/17 05:47:58;;;;;;;39.47;15.70;;;0.30;99.90;;;;;;4957011;29;20034;-85
2023/12/17 05:50:24;;;;;;;46.70;16.73;;;-0.10;99.90;;;;;;4956423;29;20062;-83
2023/12/17 05:52:51;;;;;;;49.00;18.73;;;0.20;99.90;;;;;;4956340;29;20047;-83
2023/12/17 05:55:17;;;;;;;47.08;18.08;;;1.00;99.90;;;;;;4947779;29;20046;-83
2023/12/17 05:57:44;;;;;;;50.60;19.02;;;0.60;99.90;;;;;;4950166;29;20047;-83
2023/12/17 06:00:12;;;;;;;44.83;17.33;;;0.20;99.90;;;;;;4956274;29;20051;-83
2023/12/17 06:02:37;;;;;;;47.28;16.60;;;0.20;99.90;;;;;;4952254;29;20032;-82
2023/12/17 06:05:03;;;;;;;60.22;17.23;;;0.10;99.90;;;;;;4934547;29;20099;-83
2023/12/17 06:07:29;;;;;;;42.30;16.63;;;0.10;99.90;;;;;;4940209;29;20023;-83
2023/12/17 06:09:55;;;;;;;41.75;17.08;;;0.10;99.90;;;;;;4933228;29;20027;-83
2023/12/17 06:12:21;;;;;;;52.35;18.30;;;0.00;99.90;;;;;;4942515;29;20027;-83
2023/12/17 06:14:47;;;;;;;46.88;17.63;;;0.20;99.90;;;;;;4940631;29;20035;-83
2023/12/17 06:17:13;;;;;;;65.28;19.90;;;0.20;99.90;;;;;;4939005;29;20034;-83
2023/12/17 06:19:40;;;;;;;34.22;15.55;;;0.00;99.90;;;;;;4949724;29;20188;-83
2023/12/17 06:22:09;;;;;;;47.35;16.95;;;0.00;99.90;;;;;;4953606;29;20123;-83
2023/12/17 06:24:35;;;;;;;47.45;17.45;;;0.00;99.90;;;;;;4954181;29;20026;-83
2023/12/17 06:27:02;;;;;;;50.95;17.20;;;0.10;99.90;;;;;;4954425;29;20027;-83
2023/12/17 06:29:27;;;;;;;51.08;16.90;;;0.10;99.90;;;;;;4955511;29;20030;-82
2023/12/17 06:31:53;;;;;;;43.80;18.52;;;0.10;99.90;;;;;;4956043;29;20024;-82
2023/12/17 06:34:19;;;;;;;56.10;21.65;;;0.40;99.90;;;;;;4956585;29;20024;-83
2023/12/17 06:36:45;;;;;;;40.75;17.08;;;0.20;99.90;;;;;;4941066;29;20042;-82
2023/12/17 06:39:12;;;;;;;45.65;18.27;;;1.20;99.90;;;;;;4936162;29;20039;-83
2023/12/17 06:41:50;;;;;;;49.20;17.80;;;1.50;99.90;;;;;;4950916;29;20035;-83
2023/12/17 06:44:19;;;;;;;45.42;16.77;;;0.30;99.90;;;;;;4936181;29;20026;-84
2023/12/17 06:46:46;;;;;;;50.28;19.35;;;0.30;99.90;;;;;;4939705;29;20019;-83
2023/12/17 06:49:12;;;;;;;52.67;18.85;;;0.30;99.90;;;;;;4938690;29;20012;-84
2023/12/17 06:51:42;;;;;;;49.60;18.92;;;0.20;99.90;;;;;;4938683;29;20035;-83
2023/12/17 06:54:08;;;;;;;47.75;19.10;;;0.40;99.90;;;;;;4938265;29;20020;-83
2023/12/17 06:56:36;;;;;;;49.53;18.13;;;0.40;99.90;;;;;;4938698;29;20060;-84
2023/12/17 06:59:07;;;;;;;51.65;18.50;;;0.40;99.90;;;;;;4939579;29;20055;-82
2023/12/17 07:01:35;;;;;;;47.25;17.10;;;0.40;99.90;;;;;;4922182;29;20040;-83
2023/12/17 07:04:02;;;;;;;39.30;15.48;;;0.10;99.90;;;;;;4923110;29;20032;-83
2023/12/17 07:06:30;;;;;;;40.92;17.20;;;0.40;99.90;;;;;;4906593;29;20035;-83
2023/12/17 07:08:57;;;;;;;43.58;15.98;;;0.40;99.90;;;;;;4921819;29;20047;-83
2023/12/17 07:11:24;;;;;;;40.97;14.77;;;0.50;99.90;;;;;;4921818;29;20024;-83
2023/12/17 07:13:59;;;;;;;39.63;15.25;;;0.30;99.90;;;;;;4920233;29;20020;-83
2023/12/17 07:16:28;;;;;;;33.85;14.63;;;0.70;99.90;;;;;;4900650;29;20067;-82
2023/12/17 07:18:54;;;;;;;45.85;16.13;;;0.50;99.90;;;;;;4916986;29;20027;-83
2023/12/17 07:21:22;;;;;;;43.25;16.67;;;0.50;99.90;;;;;;4921561;29;20084;-83
2023/12/17 07:23:51;;;;;;;40.10;15.75;;;0.50;99.90;;;;;;4905953;29;20027;-83
2023/12/17 07:26:20;;;;;;;;;;;0.50;99.90;;;;;;4904504;29;20035;-83
2023/12/17 07:28:46;;;;;;;36.90;14.90;;;0.50;99.90;;;;;;4921000;29;19906;-83
2023/12/17 07:31:14;;;;;;;42.78;17.55;;;0.60;99.90;;;;;;4917380;29;20327;-83
2023/12/17 07:33:42;;;;;;;43.28;16.50;;;0.70;99.90;;;;;;4916776;29;20032;-83
2023/12/17 07:36:08;;;;;;;37.47;15.68;;;0.60;99.90;;;;;;4919738;29;20028;-82
2023/12/17 07:38:34;;;;;;;38.22;15.50;;;0.70;99.90;;;;;;4911000;29;20047;-82
2023/12/17 07:41:00;;;;;;;41.50;16.17;;;0.70;99.90;;;;;;4908619;29;20039;-81
2023/12/17 07:43:25;;;;;;;40.47;16.13;;;0.70;99.90;;;;;;4911699;29;20087;-83
2023/12/17 07:45:51;;;;;;;37.20;14.60;;;0.90;99.90;;;;;;4909265;29;20030;-82
2023/12/17 07:48:17;;;;;;;44.38;15.02;;;1.20;99.90;;;;;;4911181;29;20055;-83
2023/12/17 07:50:43;;;;;;;37.78;15.30;;;0.80;99.90;;;;;;4918389;29;20096;-83
2023/12/17 07:53:11;;;;;;;38.47;15.35;;;0.90;99.90;;;;;;4905347;29;20036;-83
2023/12/17 07:55:37;;;;;;;37.05;13.68;;;0.90;99.90;;;;;;4919028;29;20019;-82
2023/12/17 07:58:03;;;;;;;35.58;14.75;;;0.90;99.90;;;;;;4920938;29;20083;-82
2023/12/17 08:00:30;;;;;;;39.72;15.45;;;0.90;99.90;;;;;;4938246;29;20060;-84
2023/12/17 08:02:56;;;;;;;39.53;14.48;;;0.80;99.90;;;;;;4926008;29;20047;-83
2023/12/17 08:05:22;;;;;;;40.90;16.40;;;0.90;99.90;;;;;;4958447;29;20023;-84
2023/12/17 08:07:49;;;;;;;41.15;16.75;;;1.00;99.90;;;;;;4962093;29;20024;-84
2023/12/17 08:10:16;;;;;;;38.40;16.08;;;1.90;99.90;;;;;;4949736;29;20075;-83
2023/12/17 08:12:44;;;;;;;43.38;15.95;;;2.00;99.90;;;;;;4947480;29;20058;-83
2023/12/17 08:15:12;;;;;;;37.27;14.70;;;1.00;99.90;;;;;;4950556;29;20035;-83
2023/12/17 08:17:40;;;;;;;38.92;15.35;;;1.00;99.90;;;;;;4937879;29;20034;-83
2023/12/17 08:20:11;;;;;;;40.85;15.38;;;1.80;99.90;;;;;;4950321;29;20055;-83
2023/12/17 08:22:37;;;;;;;41.50;17.48;;;1.10;99.90;;;;;;4938751;29;20067;-83
2023/12/17 08:25:04;;;;;;;36.33;14.90;;;1.20;99.90;;;;;;4944085;29;20039;-82
2023/12/17 08:44:30;;;;;;;37.60;17.10;;;1.80;99.90;;;;;;5120686;23;20047;-84
2023/12/17 09:01:28;;;;;;;36.90;15.30;;;1.30;99.90;;;;;;4993257;28;20070;-83
2023/12/17 09:04:32;;;;;;;29.80;12.50;;;1.40;99.90;;;;;;4975245;28;20062;-84
2023/12/17 09:07:07;;;;;;;30.70;13.00;;;1.50;99.90;;;;;;4958380;28;20026;-89
2023/12/17 09:09:33;;;;;;;28.83;13.30;;;0.10;99.90;;;;;;4970236;28;20086;-83
2023/12/17 09:12:36;;;;;;;33.15;13.95;;;1.40;99.90;;;;;;4975866;28;20023;-82
2023/12/17 09:15:03;;;;;;;28.50;11.50;;;1.50;99.90;;;;;;4940458;28;20058;-82
2023/12/17 09:17:30;;;;;;;34.53;13.88;;;1.20;99.90;;;;;;4977810;28;20055;-87
2023/12/17 09:19:56;;;;;;;34.35;13.93;;;1.30;99.90;;;;;;4967672;28;20143;-82
2023/12/17 09:22:22;;;;;;;36.20;14.15;;;1.30;99.90;;;;;;4959924;28;20502;-84
2023/12/17 09:24:50;;;;;;;33.67;13.93;;;1.20;99.90;;;;;;4941453;28;20030;-81
2023/12/17 09:27:20;;;;;;;36.35;14.82;;;1.70;99.90;;;;;;4955582;28;20027;-81
2023/12/17 09:29:46;;;;;;;36.88;15.10;;;1.30;99.90;;;;;;4961949;28;20027;-82
2023/12/17 09:32:12;;;;;;;33.30;13.88;;;1.60;99.90;;;;;;4956445;28;20377;-81
2023/12/17 09:34:38;;;;;;;36.55;15.30;;;1.70;99.90;;;;;;4940455;28;20019;-81
2023/12/17 09:37:03;;;;;;;36.88;14.23;;;1.90;99.90;;;;;;4947723;28;20070;-80
2023/12/17 09:39:53;;;;;;;42.03;14.55;;;1.90;99.90;;;;;;4979921;28;20034;-79
2023/12/17 09:42:20;;;;;;;37.53;14.93;;;2.00;99.90;;;;;;4975931;28;20554;-79
2023/12/17 09:44:46;;;;;;;32.42;14.20;;;2.10;99.90;;;;;;4953258;28;20031;-80
2023/12/17 09:47:21;;;;;;;34.47;13.98;;;2.20;99.90;;;;;;4953195;28;20151;-77
2023/12/17 09:49:55;;;;;;;35.15;14.88;;;2.30;99.90;;;;;;4939033;28;20023;-78
2023/12/17 09:52:30;;;;;;;36.10;13.25;;;2.40;99.90;;;;;;4953360;28;20284;-79
2023/12/17 09:58:12;;;;;;;31.35;14.98;;;2.50;99.90;;;;;;4946723;28;20071;-79
2023/12/17 10:03:33;;;;;;;30.95;14.35;;;2.50;99.90;;;;;;4933366;29;20046;-77
2023/12/17 10:06:21;;;;;;;32.95;12.88;;;2.50;99.90;;;;;;4939051;29;20031;-79
2023/12/17 10:08:50;;;;;;;30.63;12.30;;;2.60;99.90;;;;;;4933799;29;20290;-80
2023/12/17 10:11:19;;;;;;;27.05;12.68;;;2.50;99.90;;;;;;4934862;29;20028;-80
2023/12/17 10:13:45;;;;;;;32.22;13.45;;;2.50;99.90;;;;;;4934150;29;20032;-79
2023/12/17 10:16:29;;;;;;;33.25;13.65;;;2.50;99.90;;;;;;4949714;29;20460;-79
2023/12/17 10:19:04;;;;;;;29.55;11.75;;;2.50;99.90;;;;;;4955399;28;20027;-80
2023/12/17 10:21:36;;;;;;;25.60;12.38;;;2.50;99.90;;;;;;4952034;28;20079;-77
2023/12/17 10:24:42;;;;;;;34.10;13.55;;;2.40;99.90;;;;;;4968041;29;20031;-81
2023/12/17 10:31:53;;;;;;;32.05;15.15;;;2.50;99.90;;;;;;4903153;29;20021;-80
2023/12/17 10:34:47;;;;;;;32.10;13.30;;;2.60;99.90;;;;;;4891208;29;20029;-78
2023/12/17 10:37:40;;;;;;;37.72;13.93;;;2.70;99.90;;;;;;4897595;29;20100;-76
2023/12/17 10:40:41;;;;;;;28.23;13.02;;;2.70;99.90;;;;;;4901295;29;20021;-82
2023/12/17 10:43:16;;;;;;;34.40;13.52;;;2.70;99.90;;;;;;4876362;29;20119;-77
2023/12/17 10:45:47;;;;;;;36.47;13.57;;;2.80;99.90;;;;;;4931587;29;20068;-79
2023/12/17 10:48:21;;;;;;;33.67;14.07;;;2.80;99.90;;;;;;4940144;29;20553;-78
2023/12/17 10:50:52;;;;;;;34.65;13.93;;;2.80;99.90;;;;;;4916861;29;20011;-78
2023/12/17 10:53:57;;;;;;;35.92;15.60;;;2.80;99.90;;;;;;4952952;29;20022;-77
2023/12/17 10:56:55;;;;;;;32.65;13.77;;;2.80;99.90;;;;;;4955476;28;20636;-82
2023/12/17 10:59:25;;;;;;;35.65;14.68;;;3.00;99.90;;;;;;4937159;28;20126;-83
2023/12/17 11:01:55;;;;;;;31.77;12.77;;;3.10;99.90;;;;;;4963351;28;20059;-83
2023/12/17 11:04:22;;;;;;;;;;;3.20;99.90;;;;;;4955965;28;20198;-83
2023/12/17 11:07:23;;;;;;;37.78;18.50;;;3.30;99.90;;;;;;4963535;28;19933;-83
2023/12/17 11:09:49;;;;;;;32.47;15.55;;;3.30;99.90;;;;;;4967626;28;20039;-83
2023/12/17 11:12:20;;;;;;;29.67;11.88;;;3.40;99.90;;;;;;4968166;28;20504;-83
2023/12/17 11:14:46;;;;;;;31.23;13.40;;;3.40;99.90;;;;;;4950053;29;20041;-83
2023/12/17 11:17:14;;;;;;;31.85;14.65;;;3.50;99.90;;;;;;4941871;29;20055;-83
2023/12/17 11:19:56;;;;;;;31.67;13.65;;;3.40;99.90;;;;;;4953868;29;20054;-83
2023/12/17 11:22:25;;;;;;;32.78;15.57;;;3.50;99.90;;;;;;4964646;28;20078;-82
2023/12/17 11:24:58;;;;;;;29.30;13.07;;;3.60;99.90;;;;;;4959954;29;20030;-82
2023/12/17 11:28:00;;;;;;;29.85;12.80;;;3.60;99.90;;;;;;4943977;29;20035;-81
2023/12/17 11:30:30;;;;;;;33.63;13.80;;;3.60;99.90;;;;;;4933715;28;20379;-82
2023/12/17 11:33:02;;;;;;;28.08;11.57;;;3.60;99.90;;;;;;4963761;28;20078;-82
2023/12/17 11:35:30;;;;;;;28.33;12.57;;;3.60;99.90;;;;;;4952684;29;20037;-82
2023/12/17 11:38:15;;;;;;;30.65;11.90;;;3.60;99.90;;;;;;4959314;28;20023;-82
2023/12/17 11:40:41;;;;;;;29.80;14.05;;;3.50;99.90;;;;;;4960860;28;20033;-82
2023/12/17 11:43:37;;;;;;;24.10;11.93;;;3.10;99.90;;;;;;4927438;29;20035;-83
2023/12/17 11:47:46;;;;;;;27.13;12.80;;;3.60;99.90;;;;;;4904495;29;20040;-83
2023/12/17 11:53:26;;;;;;;28.60;11.48;;;3.80;99.90;;;;;;4809308;29;20031;-82
2023/12/17 11:55:55;;;;;;;25.75;10.82;;;3.90;99.90;;;;;;4898125;29;20036;-83
2023/12/17 11:58:22;;;;;;;35.15;14.35;;;4.00;99.90;;;;;;4946017;29;20023;-82
2023/12/17 12:01:12;;;;;;;31.05;16.00;;;3.90;99.90;;;;;;4939027;28;20658;-81
2023/12/17 12:03:47;;;;;;;;;;;3.90;99.90;;;;;;4933398;28;20027;-81
2023/12/17 12:06:14;;;;;;;24.98;11.50;;;4.00;99.90;;;;;;4942268;28;19911;-82
2023/12/17 12:08:41;;;;;;;25.63;11.90;;;4.10;99.90;;;;;;4964751;28;20061;-87
2023/12/17 12:11:11;;;;;;;26.40;13.07;;;4.20;99.90;;;;;;4971910;28;20031;-77
2023/12/17 12:13:48;;;;;;;28.63;14.75;;;4.30;99.90;;;;;;4956729;29;20495;-80
2023/12/17 12:16:20;;;;;;;22.70;11.50;;;4.30;99.90;;;;;;4964924;29;20023;-75
2023/12/17 12:18:47;;;;;;;20.23;10.68;;;4.30;99.90;;;;;;4974300;28;20059;-81
2023/12/17 12:21:51;;;;;;;21.30;11.30;;;4.30;99.90;;;;;;4965831;28;20070;-79
2023/12/17 12:24:20;;;;;;;26.48;13.95;;;4.40;99.90;;;;;;4941726;29;20332;-75
2023/12/17 12:26:47;;;;;;;22.25;11.40;;;4.50;99.90;;;;;;4954761;29;20069;-78
2023/12/17 12:29:16;;;;;;;23.15;12.13;;;4.50;99.90;;;;;;4947830;28;20043;-75
2023/12/17 12:31:52;;;;;;;23.10;11.97;;;4.50;99.90;;;;;;4962520;28;20039;-80
2023/12/17 12:34:20;;;;;;;19.45;10.73;;;4.50;99.90;;;;;;4949046;29;20047;-83
2023/12/17 12:38:09;;;;;;;21.20;10.82;;;4.50;99.90;;;;;;4942292;29;20487;-78
2023/12/17 12:40:56;;;;;;;22.38;10.82;;;4.40;99.90;;;;;;4866099;29;20033;-79
2023/12/17 12:43:27;;;;;;;25.25;11.90;;;4.40;99.90;;;;;;4831867;29;20058;-77
2023/12/17 12:45:53;;;;;;;25.58;11.75;;;4.50;99.90;;;;;;4811284;29;20042;-79
2023/12/17 12:48:20;;;;;;;26.10;11.77;;;4.60;99.90;;;;;;4866153;29;20044;-79
2023/12/17 12:50:46;;;;;;;25.33;12.25;;;4.60;99.90;;;;;;4946583;28;20023;-80
2023/12/17 12:53:12;;;;;;;27.67;12.40;;;4.70;99.90;;;;;;4951289;29;20019;-82
2023/12/17 12:55:38;;;;;;;22.65;11.85;;;4.70;99.90;;;;;;4954732;29;20038;-84
2023/12/17 12:58:04;;;;;;;29.55;13.90;;;4.80;99.90;;;;;;4966446;29;20023;-81
2023/12/17 13:00:29;;;;;;;24.38;12.65;;;4.90;99.90;;;;;;4977558;28;20066;-83
2023/12/17 13:02:55;;;;;;;24.92;12.38;;;5.00;99.90;;;;;;4967571;28;20049;-82
2023/12/17 13:05:22;;;;;;;27.42;12.05;;;5.00;99.90;;;;;;4976587;28;20026;-84
2023/12/17 13:07:51;;;;;;;25.83;12.73;;;5.50;99.90;;;;;;4975233;28;20072;-82
2023/12/17 13:10:17;;;;;;;24.80;11.75;;;5.30;99.90;;;;;;4978246;28;20030;-78
2023/12/17 13:12:43;;;;;;;19.23;10.63;;;5.60;99.90;;;;;;4947100;28;20031;-78
2023/12/17 13:15:10;;;;;;;20.83;11.95;;;5.80;99.90;;;;;;4938649;28;20027;-81
2023/12/17 13:18:20;;;;;;;21.30;11.93;;;6.20;99.90;;;;;;4935966;28;20062;-75
2023/12/17 13:21:04;;;;;;;19.85;12.00;;;7.90;99.90;;;;;;4949814;28;20043;-79
2023/12/17 13:23:30;;;;;;;18.00;11.38;;;8.40;99.90;;;;;;4947574;28;20329;-77
2023/12/17 13:26:59;;;;;;;15.20;9.30;;;10.20;96.90;;;;;;4950495;28;20046;-79
2023/12/17 13:29:17;;;;;;;20.23;10.80;;;10.40;93.90;;;;;;4916967;28;20039;-79
2023/12/17 13:31:43;;;;;;;18.83;10.80;;;10.20;92.10;;;;;;4932411;28;20054;-78
2023/12/17 13:34:31;;;;;;;16.63;9.75;;;10.10;92.00;;;;;;4940384;28;21902;-80
2023/12/17 13:37:04;;;;;;;17.93;10.23;;;10.10;91.40;;;;;;4938346;28;20326;-78
2023/12/17 13:39:30;;;;;;;20.45;10.32;;;10.00;91.40;;;;;;4934631;28;20469;-78
2023/12/17 13:41:56;;;;;;;18.27;9.70;;;10.20;91.50;;;;;;4934408;28;20042;-78
2023/12/17 13:44:46;;;;;;;20.45;10.27;;;9.90;91.10;;;;;;4940164;28;20341;-79
2023/12/17 13:47:57;;;;;;;18.83;9.95;;;8.70;92.40;;;;;;4935760;28;20343;-80
2023/12/17 13:50:35;;;;;;;18.23;9.73;;;7.40;95.70;;;;;;4917500;29;20023;-76
2023/12/17 13:53:01;;;;;;;26.25;12.80;;;6.80;99.90;;;;;;4923882;28;20499;-75
2023/12/17 13:55:32;;;;;;;16.85;9.55;;;6.40;99.90;;;;;;4935215;28;20080;-77
2023/12/17 13:57:58;;;;;;;19.70;9.50;;;6.10;99.90;;;;;;4954697;28;20035;-78
2023/12/17 14:00:42;;;;;;;21.85;9.88;;;5.90;99.90;;;;;;4953523;28;20403;-77
2023/12/17 14:03:34;;;;;;;22.35;11.10;;;5.90;99.90;;;;;;4955356;28;20054;-77